sensor_id;sensor_type;location;lat;lon;timestamp;pressure;altitude;pressure_sealevel;temperature;humidity
33286;BME280;19656;50.096;20.014;2022-12-07T00:04:01;98542.27;;;5.20;68.62
33286;BME280;19656;50.096;20.014;2022-12-07T00:09:50;98540.89;;;5.27;68.52
33286;BME280;19656;50.096;20.014;2022-12-07T00:14:56;98542.14;;;5.37;68.72
33286;BME280;19656;50.096;20.014;2022-12-07T00:20:12;98535.45;;;5.41;68.65
33286;BME280;19656;50.096;20.014;2022-12-07T00:25:16;98532.48;;;5.52;68.56
33286;BME280;19656;50.096;20.014;2022-12-07T00:30:19;98529.64;;;5.52;68.55
33286;BME280;19656;50.096;20.014;2022-12-07T00:35:23;98530.14;;;5.49;68.45
33286;BME280;19656;50.096;20.014;2022-12-07T00:40:30;98533.38;;;5.44;68.42
33286;BME280;19656;50.096;20.014;2022-12-07T00:45:34;98525.20;;;5.42;68.47
33286;BME280;19656;50.096;20.014;2022-12-07T00:50:39;98523.89;;;5.36;68.54
33286;BME280;19656;50.096;20.014;2022-12-07T00:55:44;98519.42;;;5.41;68.27
33286;BME280;19656;50.096;20.014;2022-12-07T01:01:04;98522.46;;;5.48;68.34
33286;BME280;19656;50.096;20.014;2022-12-07T01:06:29;98521.48;;;5.50;68.35
33286;BME280;19656;50.096;20.014;2022-12-07T01:11:42;98519.77;;;5.52;68.25
33286;BME280;19656;50.096;20.014;2022-12-07T01:16:47;98516.97;;;5.49;68.24
33286;BME280;19656;50.096;20.014;2022-12-07T01:21:58;98510.45;;;5.45;68.31
33286;BME280;19656;50.096;20.014;2022-12-07T01:27:15;98507.17;;;5.36;68.64
33286;BME280;19656;50.096;20.014;2022-12-07T01:32:19;98508.05;;;5.37;68.81
33286;BME280;19656;50.096;20.014;2022-12-07T01:37:24;98503.11;;;5.33;68.71
33286;BME280;19656;50.096;20.014;2022-12-07T01:42:29;98498.54;;;5.26;68.89
33286;BME280;19656;50.096;20.014;2022-12-07T01:47:37;98497.36;;;5.29;69.17
33286;BME280;19656;50.096;20.014;2022-12-07T01:52:58;98499.02;;;5.38;69.11
33286;BME280;19656;50.096;20.014;2022-12-07T01:58:15;98498.58;;;5.39;68.83
33286;BME280;19656;50.096;20.014;2022-12-07T02:03:51;98499.23;;;5.41;69.00
33286;BME280;19656;50.096;20.014;2022-12-07T02:09:01;98502.23;;;5.40;68.91
33286;BME280;19656;50.096;20.014;2022-12-07T02:14:05;98496.38;;;5.35;68.75
33286;BME280;19656;50.096;20.014;2022-12-07T02:24:52;98484.95;;;5.09;69.35
33286;BME280;19656;50.096;20.014;2022-12-07T02:30:11;98494.81;;;5.02;69.80
33286;BME280;19656;50.096;20.014;2022-12-07T02:35:58;98495.84;;;4.95;69.81
33286;BME280;19656;50.096;20.014;2022-12-07T02:41:36;98491.77;;;4.91;69.97
33286;BME280;19656;50.096;20.014;2022-12-07T02:47:10;98492.89;;;4.98;70.24
33286;BME280;19656;50.096;20.014;2022-12-07T02:52:26;98490.50;;;5.07;69.98
33286;BME280;19656;50.096;20.014;2022-12-07T03:03:15;98486.86;;;5.03;69.32
33286;BME280;19656;50.096;20.014;2022-12-07T03:14:46;98471.50;;;4.93;69.15
33286;BME280;19656;50.096;20.014;2022-12-07T03:20:04;98475.24;;;4.81;69.52
33286;BME280;19656;50.096;20.014;2022-12-07T03:25:30;98476.72;;;4.76;69.64
33286;BME280;19656;50.096;20.014;2022-12-07T03:30:52;98471.95;;;4.69;69.54
33286;BME280;19656;50.096;20.014;2022-12-07T03:36:29;98467.05;;;4.72;69.93
33286;BME280;19656;50.096;20.014;2022-12-07T03:41:51;98461.48;;;4.71;69.99
33286;BME280;19656;50.096;20.014;2022-12-07T03:58:16;98448.90;;;4.66;70.37
33286;BME280;19656;50.096;20.014;2022-12-07T04:04:10;98445.50;;;4.63;70.88
33286;BME280;19656;50.096;20.014;2022-12-07T04:16:10;98447.29;;;4.59;71.30
33286;BME280;19656;50.096;20.014;2022-12-07T04:22:06;98447.92;;;4.57;71.68
33286;BME280;19656;50.096;20.014;2022-12-07T04:27:32;98442.63;;;4.61;71.71
33286;BME280;19656;50.096;20.014;2022-12-07T04:33:01;98445.90;;;4.66;71.79
33286;BME280;19656;50.096;20.014;2022-12-07T04:44:59;98435.70;;;4.88;71.63
33286;BME280;19656;50.096;20.014;2022-12-07T04:50:15;98434.48;;;4.99;71.17
33286;BME280;19656;50.096;20.014;2022-12-07T04:55:36;98435.55;;;5.02;71.00
33286;BME280;19656;50.096;20.014;2022-12-07T05:00:59;98430.59;;;5.03;70.79
33286;BME280;19656;50.096;20.014;2022-12-07T05:06:12;98436.94;;;4.99;70.79
33286;BME280;19656;50.096;20.014;2022-12-07T05:12:55;98430.36;;;4.90;71.22
33286;BME280;19656;50.096;20.014;2022-12-07T05:18:44;98428.00;;;4.84;71.40
33286;BME280;19656;50.096;20.014;2022-12-07T05:37:13;98437.42;;;4.74;71.17
33286;BME280;19656;50.096;20.014;2022-12-07T05:43:15;98442.04;;;4.66;71.10
33286;BME280;19656;50.096;20.014;2022-12-07T05:48:20;98446.98;;;4.66;71.11
33286;BME280;19656;50.096;20.014;2022-12-07T06:01:17;98448.00;;;4.70;71.29
33286;BME280;19656;50.096;20.014;2022-12-07T06:06:55;98448.87;;;4.74;71.68
33286;BME280;19656;50.096;20.014;2022-12-07T06:12:04;98449.92;;;4.78;71.12
33286;BME280;19656;50.096;20.014;2022-12-07T06:17:54;98446.06;;;4.85;71.04
33286;BME280;19656;50.096;20.014;2022-12-07T06:23:01;98446.42;;;4.99;71.36
33286;BME280;19656;50.096;20.014;2022-12-07T06:28:09;98445.05;;;5.09;70.81
33286;BME280;19656;50.096;20.014;2022-12-07T06:33:14;98446.50;;;5.05;70.66
33286;BME280;19656;50.096;20.014;2022-12-07T06:38:29;98442.18;;;5.10;70.48
33286;BME280;19656;50.096;20.014;2022-12-07T06:43:39;98444.48;;;5.10;69.93
33286;BME280;19656;50.096;20.014;2022-12-07T06:48:50;98451.27;;;5.04;69.86
33286;BME280;19656;50.096;20.014;2022-12-07T06:53:56;98456.64;;;5.06;70.22
33286;BME280;19656;50.096;20.014;2022-12-07T06:59:08;98460.69;;;5.09;70.48
33286;BME280;19656;50.096;20.014;2022-12-07T07:04:22;98463.17;;;5.12;69.75
33286;BME280;19656;50.096;20.014;2022-12-07T07:09:42;98466.31;;;5.16;69.56
33286;BME280;19656;50.096;20.014;2022-12-07T07:14:51;98465.23;;;5.20;69.56
33286;BME280;19656;50.096;20.014;2022-12-07T07:20:09;98471.77;;;5.27;68.93
33286;BME280;19656;50.096;20.014;2022-12-07T07:25:19;98472.64;;;5.27;69.00
33286;BME280;19656;50.096;20.014;2022-12-07T07:30:27;98468.63;;;5.23;68.63
33286;BME280;19656;50.096;20.014;2022-12-07T07:35:35;98468.42;;;5.13;68.88
33286;BME280;19656;50.096;20.014;2022-12-07T07:40:48;98473.16;;;4.99;68.94
33286;BME280;19656;50.096;20.014;2022-12-07T07:52:27;98471.05;;;5.06;71.07
33286;BME280;19656;50.096;20.014;2022-12-07T07:58:10;98474.48;;;5.15;69.80
33286;BME280;19656;50.096;20.014;2022-12-07T08:03:31;98479.52;;;5.23;69.87
33286;BME280;19656;50.096;20.014;2022-12-07T08:08:41;98478.31;;;5.23;69.44
33286;BME280;19656;50.096;20.014;2022-12-07T08:14:04;98481.30;;;5.22;68.90
33286;BME280;19656;50.096;20.014;2022-12-07T08:19:08;98492.11;;;5.21;69.24
33286;BME280;19656;50.096;20.014;2022-12-07T08:28:10;98496.98;;;5.11;69.47
33286;BME280;19656;50.096;20.014;2022-12-07T08:33:39;98501.15;;;5.02;69.09
33286;BME280;19656;50.096;20.014;2022-12-07T08:38:49;98503.91;;;4.99;69.62
33286;BME280;19656;50.096;20.014;2022-12-07T08:44:19;98506.28;;;5.01;69.87
33286;BME280;19656;50.096;20.014;2022-12-07T08:49:39;98509.61;;;5.08;69.82
33286;BME280;19656;50.096;20.014;2022-12-07T08:54:55;98510.11;;;5.12;69.62
33286;BME280;19656;50.096;20.014;2022-12-07T09:06:48;98514.43;;;5.11;69.55
33286;BME280;19656;50.096;20.014;2022-12-07T09:11:53;98508.00;;;5.13;69.72
33286;BME280;19656;50.096;20.014;2022-12-07T09:17:11;98517.84;;;5.05;69.34
33286;BME280;19656;50.096;20.014;2022-12-07T09:22:19;98517.61;;;5.03;69.36
33286;BME280;19656;50.096;20.014;2022-12-07T09:28:06;98517.17;;;5.01;69.38
33286;BME280;19656;50.096;20.014;2022-12-07T09:33:26;98511.92;;;5.04;69.74
33286;BME280;19656;50.096;20.014;2022-12-07T09:38:28;98507.32;;;5.12;69.69
33286;BME280;19656;50.096;20.014;2022-12-07T09:43:35;98506.26;;;5.12;69.51
33286;BME280;19656;50.096;20.014;2022-12-07T09:48:38;98507.64;;;5.09;69.59
33286;BME280;19656;50.096;20.014;2022-12-07T09:53:42;98500.77;;;5.12;69.58
33286;BME280;19656;50.096;20.014;2022-12-07T09:58:47;98500.50;;;5.22;69.58
33286;BME280;19656;50.096;20.014;2022-12-07T10:03:53;98499.63;;;5.29;69.69
33286;BME280;19656;50.096;20.014;2022-12-07T10:08:57;98497.55;;;5.29;69.93
33286;BME280;19656;50.096;20.014;2022-12-07T10:14:12;98497.67;;;5.33;69.71
33286;BME280;19656;50.096;20.014;2022-12-07T10:19:19;98491.59;;;5.32;69.23
33286;BME280;19656;50.096;20.014;2022-12-07T10:24:23;98487.14;;;5.29;69.25
33286;BME280;19656;50.096;20.014;2022-12-07T10:29:31;98483.02;;;5.34;69.56
33286;BME280;19656;50.096;20.014;2022-12-07T10:34:37;98479.02;;;5.30;69.64
33286;BME280;19656;50.096;20.014;2022-12-07T10:39:48;98473.56;;;5.26;69.82
33286;BME280;19656;50.096;20.014;2022-12-07T10:45:17;98470.48;;;5.39;69.74
33286;BME280;19656;50.096;20.014;2022-12-07T10:50:36;98463.77;;;5.53;69.62
33286;BME280;19656;50.096;20.014;2022-12-07T11:11:37;98438.48;;;5.63;69.39
33286;BME280;19656;50.096;20.014;2022-12-07T11:17:03;98437.79;;;5.66;69.21
33286;BME280;19656;50.096;20.014;2022-12-07T11:22:16;98438.63;;;5.73;68.92
33286;BME280;19656;50.096;20.014;2022-12-07T11:32:53;98436.71;;;5.97;68.52
33286;BME280;19656;50.096;20.014;2022-12-07T11:38:03;98430.08;;;5.96;68.12
33286;BME280;19656;50.096;20.014;2022-12-07T11:49:19;98418.52;;;5.91;68.41
33286;BME280;19656;50.096;20.014;2022-12-07T11:54:46;98414.05;;;5.96;67.75
33286;BME280;19656;50.096;20.014;2022-12-07T12:15:08;98404.87;;;6.13;66.44
33286;BME280;19656;50.096;20.014;2022-12-07T12:24:52;98402.38;;;6.20;65.78
33286;BME280;19656;50.096;20.014;2022-12-07T12:47:03;98380.35;;;6.26;64.07
33286;BME280;19656;50.096;20.014;2022-12-07T12:57:32;98378.39;;;6.24;63.79
33286;BME280;19656;50.096;20.014;2022-12-07T13:08:13;98389.84;;;6.24;62.45
33286;BME280;19656;50.096;20.014;2022-12-07T13:13:29;98388.46;;;6.17;61.69
33286;BME280;19656;50.096;20.014;2022-12-07T13:18:37;98392.99;;;6.08;61.63
33286;BME280;19656;50.096;20.014;2022-12-07T13:39:47;98388.84;;;5.97;60.05
33286;BME280;19656;50.096;20.014;2022-12-07T13:44:59;98393.11;;;5.92;60.57
33286;BME280;19656;50.096;20.014;2022-12-07T13:50:35;98404.23;;;5.88;59.88
33286;BME280;19656;50.096;20.014;2022-12-07T13:55:45;98412.30;;;5.82;59.58
33286;BME280;19656;50.096;20.014;2022-12-07T14:01:05;98407.92;;;5.75;59.82
33286;BME280;19656;50.096;20.014;2022-12-07T14:06:23;98410.05;;;5.74;60.66
33286;BME280;19656;50.096;20.014;2022-12-07T14:17:28;98411.36;;;5.69;60.62
33286;BME280;19656;50.096;20.014;2022-12-07T14:34:34;98412.80;;;5.56;60.63
33286;BME280;19656;50.096;20.014;2022-12-07T14:39:38;98408.95;;;5.55;60.53
33286;BME280;19656;50.096;20.014;2022-12-07T14:44:43;98416.77;;;5.54;60.48
33286;BME280;19656;50.096;20.014;2022-12-07T14:49:47;98417.13;;;5.50;60.12
33286;BME280;19656;50.096;20.014;2022-12-07T14:55:02;98417.60;;;5.48;60.22
33286;BME280;19656;50.096;20.014;2022-12-07T15:00:44;98422.20;;;5.47;60.63
33286;BME280;19656;50.096;20.014;2022-12-07T15:13:30;98423.37;;;5.45;60.57
33286;BME280;19656;50.096;20.014;2022-12-07T15:20:20;98426.56;;;5.48;60.69
33286;BME280;19656;50.096;20.014;2022-12-07T15:32:13;98431.15;;;5.54;60.69
33286;BME280;19656;50.096;20.014;2022-12-07T15:37:18;98435.94;;;5.57;60.40
33286;BME280;19656;50.096;20.014;2022-12-07T15:42:27;98442.76;;;5.58;60.59
33286;BME280;19656;50.096;20.014;2022-12-07T15:54:46;98461.01;;;5.52;60.71
33286;BME280;19656;50.096;20.014;2022-12-07T16:00:23;98459.89;;;5.50;61.25
33286;BME280;19656;50.096;20.014;2022-12-07T16:12:24;98469.06;;;5.50;61.99
33286;BME280;19656;50.096;20.014;2022-12-07T16:17:51;98466.27;;;5.49;62.09
33286;BME280;19656;50.096;20.014;2022-12-07T16:23:01;98467.79;;;5.50;61.94
33286;BME280;19656;50.096;20.014;2022-12-07T16:28:36;98467.88;;;5.52;62.23
33286;BME280;19656;50.096;20.014;2022-12-07T16:39:45;98462.56;;;5.53;62.11
33286;BME280;19656;50.096;20.014;2022-12-07T16:45:11;98465.13;;;5.55;62.23
33286;BME280;19656;50.096;20.014;2022-12-07T16:50:43;98465.79;;;5.61;61.50
33286;BME280;19656;50.096;20.014;2022-12-07T16:56:53;98464.25;;;5.58;61.42
33286;BME280;19656;50.096;20.014;2022-12-07T17:03:14;98471.09;;;5.58;61.31
33286;BME280;19656;50.096;20.014;2022-12-07T17:14:45;98469.75;;;5.60;60.14
33286;BME280;19656;50.096;20.014;2022-12-07T17:20:27;98470.61;;;5.54;60.15
33286;BME280;19656;50.096;20.014;2022-12-07T17:25:37;98474.10;;;5.51;60.08
33286;BME280;19656;50.096;20.014;2022-12-07T17:45:08;98483.56;;;5.37;59.64
33286;BME280;19656;50.096;20.014;2022-12-07T17:54:54;98488.90;;;5.29;60.11
33286;BME280;19656;50.096;20.014;2022-12-07T18:27:30;98477.11;;;5.29;59.38
33286;BME280;19656;50.096;20.014;2022-12-07T18:33:04;98474.82;;;5.33;59.94
33286;BME280;19656;50.096;20.014;2022-12-07T18:38:18;98481.56;;;5.35;59.60
33286;BME280;19656;50.096;20.014;2022-12-07T18:44:35;98481.65;;;5.34;59.26
33286;BME280;19656;50.096;20.014;2022-12-07T18:49:39;98475.19;;;5.32;59.31
33286;BME280;19656;50.096;20.014;2022-12-07T18:55:14;98477.14;;;5.35;59.80
33286;BME280;19656;50.096;20.014;2022-12-07T19:07:02;98484.65;;;5.37;59.05
33286;BME280;19656;50.096;20.014;2022-12-07T19:12:48;98492.20;;;5.33;59.03
33286;BME280;19656;50.096;20.014;2022-12-07T19:17:53;98492.15;;;5.34;59.18
33286;BME280;19656;50.096;20.014;2022-12-07T19:22:56;98492.91;;;5.33;58.94
33286;BME280;19656;50.096;20.014;2022-12-07T19:28:01;98490.89;;;5.28;59.18
33286;BME280;19656;50.096;20.014;2022-12-07T19:33:05;98484.64;;;5.30;59.15
33286;BME280;19656;50.096;20.014;2022-12-07T19:38:42;98483.89;;;5.27;58.71
33286;BME280;19656;50.096;20.014;2022-12-07T19:43:46;98485.67;;;5.30;59.54
33286;BME280;19656;50.096;20.014;2022-12-07T19:48:49;98485.41;;;5.36;58.95
33286;BME280;19656;50.096;20.014;2022-12-07T19:53:55;98483.66;;;5.35;58.67
33286;BME280;19656;50.096;20.014;2022-12-07T19:59:01;98494.27;;;5.38;58.49
33286;BME280;19656;50.096;20.014;2022-12-07T20:04:10;98490.57;;;5.41;58.08
33286;BME280;19656;50.096;20.014;2022-12-07T20:09:17;98489.11;;;5.42;58.07
33286;BME280;19656;50.096;20.014;2022-12-07T20:14:21;98492.70;;;5.45;57.70
33286;BME280;19656;50.096;20.014;2022-12-07T20:19:24;98492.59;;;5.43;57.82
33286;BME280;19656;50.096;20.014;2022-12-07T20:24:28;98496.17;;;5.49;57.82
33286;BME280;19656;50.096;20.014;2022-12-07T20:29:33;98492.71;;;5.52;57.54
33286;BME280;19656;50.096;20.014;2022-12-07T20:34:37;98497.45;;;5.52;57.56
33286;BME280;19656;50.096;20.014;2022-12-07T20:39:41;98500.65;;;5.51;57.93
33286;BME280;19656;50.096;20.014;2022-12-07T20:44:44;98503.16;;;5.50;57.91
33286;BME280;19656;50.096;20.014;2022-12-07T20:49:48;98505.16;;;5.52;57.78
33286;BME280;19656;50.096;20.014;2022-12-07T20:54:51;98509.08;;;5.55;58.20
33286;BME280;19656;50.096;20.014;2022-12-07T20:59:54;98509.14;;;5.57;57.98
33286;BME280;19656;50.096;20.014;2022-12-07T21:04:59;98508.17;;;5.56;58.24
33286;BME280;19656;50.096;20.014;2022-12-07T21:10:07;98507.37;;;5.57;58.39
33286;BME280;19656;50.096;20.014;2022-12-07T21:15:11;98504.33;;;5.59;58.00
33286;BME280;19656;50.096;20.014;2022-12-07T21:20:17;98504.98;;;5.59;58.27
33286;BME280;19656;50.096;20.014;2022-12-07T21:25:21;98501.61;;;5.60;57.95
33286;BME280;19656;50.096;20.014;2022-12-07T21:30:25;98504.52;;;5.61;57.81
33286;BME280;19656;50.096;20.014;2022-12-07T21:35:30;98506.08;;;5.59;57.89
33286;BME280;19656;50.096;20.014;2022-12-07T21:40:34;98508.88;;;5.59;57.98
33286;BME280;19656;50.096;20.014;2022-12-07T21:45:38;98513.15;;;5.62;57.80
33286;BME280;19656;50.096;20.014;2022-12-07T21:50:41;98516.23;;;5.60;57.71
33286;BME280;19656;50.096;20.014;2022-12-07T21:55:45;98515.97;;;5.58;57.70
33286;BME280;19656;50.096;20.014;2022-12-07T22:00:48;98519.70;;;5.60;58.04
33286;BME280;19656;50.096;20.014;2022-12-07T22:05:59;98518.28;;;5.61;57.71
33286;BME280;19656;50.096;20.014;2022-12-07T22:11:04;98520.44;;;5.60;57.77
33286;BME280;19656;50.096;20.014;2022-12-07T22:16:09;98522.32;;;5.58;57.93
33286;BME280;19656;50.096;20.014;2022-12-07T22:21:13;98528.23;;;5.59;58.11
33286;BME280;19656;50.096;20.014;2022-12-07T22:26:17;98529.56;;;5.60;57.93
33286;BME280;19656;50.096;20.014;2022-12-07T22:31:27;98525.61;;;5.59;57.82
33286;BME280;19656;50.096;20.014;2022-12-07T22:36:44;98524.04;;;5.58;57.97
33286;BME280;19656;50.096;20.014;2022-12-07T22:42:09;98522.72;;;5.60;58.16
33286;BME280;19656;50.096;20.014;2022-12-07T22:48:20;98521.14;;;5.60;58.17
33286;BME280;19656;50.096;20.014;2022-12-07T23:01:31;98518.46;;;5.61;58.00
33286;BME280;19656;50.096;20.014;2022-12-07T23:06:38;98524.42;;;5.65;58.00
33286;BME280;19656;50.096;20.014;2022-12-07T23:36:24;98517.11;;;5.63;57.47
